Terminal Aerodrome Forecast
Issued by NWS

Home | Current Version | Previous Version | Text Only | Print | Product List | Glossary On
Versions: 1 2 3 4 5 6 7 8 9 10 11 12 13 14 15 16 17 18 19 20 21 22 23 24 25 26
000
FTUS42 KJAX 291500 AAB
TAFVQQ
TAF AMD
KVQQ 291513Z 2915/3012 23008KT 6SM BR OVC006
     FM291600 21008KT P6SM BKN010 BKN020
     FM291700 22010KT P6SM BKN020 BKN040
     FM300000 24005KT 5SM BR VCSH OVC015=

USA.gov is the U.S. government's official web portal to all federal, state and local government web resources and services.